Felker Army Air Field
KFAF : now visible

Airfield :











YOU CAN JOIN US ON...

 
LOGIN :

Register | Disclaimer

   EN    FR    IT 

 









Legend :    VFR   Marginal VFR   IFR   Intensive IFR   Very Intensive IFR
Visi :
Ceiling :
>= 8 km
>= 3000ft
5 to 8 km
1000 to 3000 ft
1500m to 5 km
500 to 1000 ft
800 to 1500m
200 to 500 ft
< 800m
< 200 ft
Symbols :   Thunderstorms  Fog  Heavy snow  Heavy precipitations  Wind > 20 kt







- Airport Elevation : 12 ft


KFAF - Felker Army Air Field

CURRENT METAR :
  • 230956Z 00000KT 10SM CLR 12/10 A3005 RMK AO2A SLP179 T01170101 $

EXPIRED METARs :
  • 230856Z AUTO 00000KT 10SM CLR 13/10 A3005 RMK AO2 SLP179 T01250100 56007 $
  • 230756Z AUTO 30003KT 10SM CLR 13/09 A3005 RMK AO2 SLP179 T01330093 $

TAF TAF KFAF
Valid from the 23 at 10:00 until the 24 at 16:00 UTC


231000Z 2310/2416 VRB06KT 9999 SKC QNH2987INS
BECMG 2403/2404 20009KT 9999 FEW200 QNH2986INS
BECMG 2408/2409 22006KT 9999 SCT100 BKN140 QNH2982INS
BECMG 2412/2413 32012KT 9999 SCT070 BKN100 510033 QNH2987INS TX26/2319Z TN12/2310Z
KZDC FIR / North America



MET'MAP, your aeronautical weather chart ! - Copyright ORBIFLY December 2007 - Disclaimer

ORBIFLY MET'MAP TEAM :

Programming & Development : Alexandra Zaïnal
Concept & Development : Baudouin d'Aumeries
Co-Development & Prog : Marc-Olivier Méhu
Technical & hardware support : Manuel Goepfert

Contact : metmap@orbifly.com




SOURCES & CREDITS :

   NOAA       Earth
Advisory